sensor_id;sensor_type;location;lat;lon;timestamp;pressure;altitude;pressure_sealevel;temperature;humidity
48424;BME280;34232;42.502;26.014;2023-07-31T00:02:03;99438.66;;;24.46;53.25
48424;BME280;34232;42.502;26.014;2023-07-31T00:04:29;99430.69;;;24.27;53.92
48424;BME280;34232;42.502;26.014;2023-07-31T00:12:59;99426.47;;;24.31;52.64
48424;BME280;34232;42.502;26.014;2023-07-31T00:15:25;99417.38;;;24.32;51.09
48424;BME280;34232;42.502;26.014;2023-07-31T00:17:50;99418.78;;;24.35;51.31
48424;BME280;34232;42.502;26.014;2023-07-31T00:20:38;99409.59;;;24.24;50.29
48424;BME280;34232;42.502;26.014;2023-07-31T00:29:02;99405.09;;;24.48;50.15
48424;BME280;34232;42.502;26.014;2023-07-31T00:31:27;99408.38;;;24.62;50.43
48424;BME280;34232;42.502;26.014;2023-07-31T00:43:21;99401.72;;;24.76;51.15
48424;BME280;34232;42.502;26.014;2023-07-31T00:45:49;99405.47;;;24.75;52.05
48424;BME280;34232;42.502;26.014;2023-07-31T00:51:39;99386.03;;;24.61;53.50
48424;BME280;34232;42.502;26.014;2023-07-31T00:54:05;99383.44;;;24.55;53.91
48424;BME280;34232;42.502;26.014;2023-07-31T00:56:31;99390.38;;;24.51;54.22
48424;BME280;34232;42.502;26.014;2023-07-31T01:08:32;99374.44;;;23.96;56.69
48424;BME280;34232;42.502;26.014;2023-07-31T01:11:04;99378.75;;;23.85;57.24
48424;BME280;34232;42.502;26.014;2023-07-31T01:13:32;99374.28;;;23.91;57.82
48424;BME280;34232;42.502;26.014;2023-07-31T01:15:57;99372.34;;;23.98;57.37
48424;BME280;34232;42.502;26.014;2023-07-31T01:18:23;99374.81;;;23.99;57.33
48424;BME280;34232;42.502;26.014;2023-07-31T01:20:51;99369.66;;;23.98;57.90
48424;BME280;34232;42.502;26.014;2023-07-31T01:26:37;99371.16;;;23.94;57.85
48424;BME280;34232;42.502;26.014;2023-07-31T01:31:32;99373.25;;;23.92;57.90
48424;BME280;34232;42.502;26.014;2023-07-31T01:34:01;99366.69;;;23.88;57.72
48424;BME280;34232;42.502;26.014;2023-07-31T01:36:27;99366.69;;;23.88;58.12
48424;BME280;34232;42.502;26.014;2023-07-31T01:42:33;99355.94;;;23.88;58.28
48424;BME280;34232;42.502;26.014;2023-07-31T01:44:59;99358.63;;;23.88;58.19
48424;BME280;34232;42.502;26.014;2023-07-31T01:47:24;99359.66;;;23.87;58.59
48424;BME280;34232;42.502;26.014;2023-07-31T01:49:49;99351.56;;;23.75;58.70
48424;BME280;34232;42.502;26.014;2023-07-31T02:02:16;99349.22;;;23.67;59.47
48424;BME280;34232;42.502;26.014;2023-07-31T02:14:15;99352.59;;;23.44;61.53
48424;BME280;34232;42.502;26.014;2023-07-31T02:16:40;99348.72;;;23.40;61.58
48424;BME280;34232;42.502;26.014;2023-07-31T02:19:25;99354.91;;;23.41;61.68
48424;BME280;34232;42.502;26.014;2023-07-31T02:21:51;99356.53;;;23.42;61.98
48424;BME280;34232;42.502;26.014;2023-07-31T02:24:16;99363.13;;;23.46;61.96
48424;BME280;34232;42.502;26.014;2023-07-31T02:26:41;99355.13;;;23.57;61.63
48424;BME280;34232;42.502;26.014;2023-07-31T02:29:09;99362.75;;;23.60;61.74
48424;BME280;34232;42.502;26.014;2023-07-31T02:31:35;99364.06;;;23.69;61.36
48424;BME280;34232;42.502;26.014;2023-07-31T02:37:05;99370.19;;;23.88;60.79
48424;BME280;34232;42.502;26.014;2023-07-31T02:39:31;99376.38;;;23.89;60.72
48424;BME280;34232;42.502;26.014;2023-07-31T02:51:36;99378.91;;;24.02;60.25
48424;BME280;34232;42.502;26.014;2023-07-31T02:54:02;99378.41;;;24.05;60.38
48424;BME280;34232;42.502;26.014;2023-07-31T02:56:27;99378.91;;;24.02;60.55
48424;BME280;34232;42.502;26.014;2023-07-31T03:01:56;99378.41;;;24.05;60.14
48424;BME280;34232;42.502;26.014;2023-07-31T03:04:21;99377.72;;;23.98;60.75
48424;BME280;34232;42.502;26.014;2023-07-31T03:12:52;99369.72;;;23.80;60.20
48424;BME280;34232;42.502;26.014;2023-07-31T03:18:41;99366.50;;;23.71;60.81
48424;BME280;34232;42.502;26.014;2023-07-31T03:21:07;99367.81;;;23.68;61.20
48424;BME280;34232;42.502;26.014;2023-07-31T03:58:10;99418.75;;;24.05;62.09
48424;BME280;34232;42.502;26.014;2023-07-31T04:00:55;99416.66;;;24.07;62.64
48424;BME280;34232;42.502;26.014;2023-07-31T04:03:21;99424.97;;;24.05;61.54
48424;BME280;34232;42.502;26.014;2023-07-31T04:05:46;99424.72;;;24.07;61.42
48424;BME280;34232;42.502;26.014;2023-07-31T04:08:11;99422.41;;;24.11;60.86
48424;BME280;34232;42.502;26.014;2023-07-31T04:10:36;99432.94;;;24.12;60.89
48424;BME280;34232;42.502;26.014;2023-07-31T04:19:02;99429.50;;;24.23;60.21
48424;BME280;34232;42.502;26.014;2023-07-31T04:21:47;99434.41;;;24.26;59.71
48424;BME280;34232;42.502;26.014;2023-07-31T04:24:14;99446.72;;;24.34;59.19
48424;BME280;34232;42.502;26.014;2023-07-31T04:26:39;99449.53;;;24.39;58.89
48424;BME280;34232;42.502;26.014;2023-07-31T04:29:04;99451.09;;;24.47;58.53
48424;BME280;34232;42.502;26.014;2023-07-31T04:31:30;99449.56;;;24.51;58.38
48424;BME280;34232;42.502;26.014;2023-07-31T04:33:56;99453.88;;;24.52;57.90
48424;BME280;34232;42.502;26.014;2023-07-31T04:36:21;99460.66;;;24.54;57.60
48424;BME280;34232;42.502;26.014;2023-07-31T04:38:47;99457.88;;;24.61;57.48
48424;BME280;34232;42.502;26.014;2023-07-31T04:41:12;99453.69;;;24.65;57.94
48424;BME280;34232;42.502;26.014;2023-07-31T05:01:38;99455.31;;;24.89;59.41
48424;BME280;34232;42.502;26.014;2023-07-31T05:04:04;99453.47;;;24.78;58.91
48424;BME280;34232;42.502;26.014;2023-07-31T05:06:30;99454.38;;;24.72;58.62
48424;BME280;34232;42.502;26.014;2023-07-31T05:10:04;99454.38;;;24.72;58.80
48424;BME280;34232;42.502;26.014;2023-07-31T05:13:04;99462.13;;;24.80;58.73
48424;BME280;34232;42.502;26.014;2023-07-31T05:15:29;99457.88;;;24.84;59.89
48424;BME280;34232;42.502;26.014;2023-07-31T05:21:34;99471.84;;;24.81;61.65
48424;BME280;34232;42.502;26.014;2023-07-31T05:24:58;99470.66;;;24.77;61.13
48424;BME280;34232;42.502;26.014;2023-07-31T05:27:54;99477.78;;;24.71;60.04
48424;BME280;34232;42.502;26.014;2023-07-31T05:30:22;99481.91;;;24.74;60.57
48424;BME280;34232;42.502;26.014;2023-07-31T05:32:48;99476.97;;;24.71;59.68
48424;BME280;34232;42.502;26.014;2023-07-31T05:35:13;99484.13;;;24.77;60.19
48424;BME280;34232;42.502;26.014;2023-07-31T05:43:43;99479.50;;;24.54;61.68
48424;BME280;34232;42.502;26.014;2023-07-31T05:46:09;99489.00;;;24.57;62.83
48424;BME280;34232;42.502;26.014;2023-07-31T05:51:59;99494.75;;;24.60;61.10
48424;BME280;34232;42.502;26.014;2023-07-31T05:54:24;99498.91;;;24.33;60.61
48424;BME280;34232;42.502;26.014;2023-07-31T05:56:49;99497.16;;;24.38;60.98
48424;BME280;34232;42.502;26.014;2023-07-31T05:59:15;99506.09;;;24.51;62.60
48424;BME280;34232;42.502;26.014;2023-07-31T06:02:19;99505.59;;;24.54;62.41
48424;BME280;34232;42.502;26.014;2023-07-31T06:14:28;99513.63;;;24.12;61.60
48424;BME280;34232;42.502;26.014;2023-07-31T06:17:38;99520.06;;;24.29;62.42
48424;BME280;34232;42.502;26.014;2023-07-31T06:23:42;99527.84;;;24.49;63.18
48424;BME280;34232;42.502;26.014;2023-07-31T06:26:08;99533.50;;;24.59;63.19
48424;BME280;34232;42.502;26.014;2023-07-31T06:32:09;99552.59;;;24.69;64.19
48424;BME280;34232;42.502;26.014;2023-07-31T06:35:31;99556.69;;;24.72;66.02
48424;BME280;34232;42.502;26.014;2023-07-31T06:38:15;99567.47;;;24.72;66.76
48424;BME280;34232;42.502;26.014;2023-07-31T06:40:42;99562.19;;;24.65;68.20
48424;BME280;34232;42.502;26.014;2023-07-31T06:43:08;99565.09;;;24.64;68.99
48424;BME280;34232;42.502;26.014;2023-07-31T06:45:34;99567.22;;;24.62;70.88
48424;BME280;34232;42.502;26.014;2023-07-31T06:48:34;99568.25;;;24.61;72.32
48424;BME280;34232;42.502;26.014;2023-07-31T06:51:36;99573.50;;;24.56;73.47
48424;BME280;34232;42.502;26.014;2023-07-31T06:54:03;99574.88;;;24.47;74.46
48424;BME280;34232;42.502;26.014;2023-07-31T06:56:28;99579.75;;;24.38;75.93
48424;BME280;34232;42.502;26.014;2023-07-31T06:58:54;99578.81;;;24.32;76.45
48424;BME280;34232;42.502;26.014;2023-07-31T07:01:20;99585.53;;;24.23;75.86
48424;BME280;34232;42.502;26.014;2023-07-31T07:04:13;99589.56;;;24.14;75.82
48424;BME280;34232;42.502;26.014;2023-07-31T07:11:00;99598.69;;;23.95;79.14
48424;BME280;34232;42.502;26.014;2023-07-31T07:13:46;99594.19;;;23.89;80.93
48424;BME280;34232;42.502;26.014;2023-07-31T07:16:11;99604.19;;;23.82;81.76
48424;BME280;34232;42.502;26.014;2023-07-31T07:27:42;99599.72;;;23.76;85.92
48424;BME280;34232;42.502;26.014;2023-07-31T07:30:13;99594.34;;;23.76;85.67
48424;BME280;34232;42.502;26.014;2023-07-31T07:38:44;99596.56;;;23.60;90.67
48424;BME280;34232;42.502;26.014;2023-07-31T07:41:11;99594.03;;;23.65;89.51
48424;BME280;34232;42.502;26.014;2023-07-31T07:43:36;99590.31;;;23.66;88.65
48424;BME280;34232;42.502;26.014;2023-07-31T07:46:01;99592.56;;;23.69;88.02
48424;BME280;34232;42.502;26.014;2023-07-31T07:51:50;99586.25;;;23.57;85.55
48424;BME280;34232;42.502;26.014;2023-07-31T07:54:15;99586.41;;;23.62;85.56
48424;BME280;34232;42.502;26.014;2023-07-31T07:56:42;99582.63;;;23.45;85.38
48424;BME280;34232;42.502;26.014;2023-07-31T07:59:07;99581.78;;;23.45;85.69
48424;BME280;34232;42.502;26.014;2023-07-31T08:01:32;99582.78;;;23.50;85.81
48424;BME280;34232;42.502;26.014;2023-07-31T08:03:58;99585.69;;;23.49;86.05
48424;BME280;34232;42.502;26.014;2023-07-31T08:06:26;99583.66;;;23.44;87.70
48424;BME280;34232;42.502;26.014;2023-07-31T08:08:51;99587.59;;;23.42;88.03
48424;BME280;34232;42.502;26.014;2023-07-31T08:11:16;99595.81;;;23.53;87.82
48424;BME280;34232;42.502;26.014;2023-07-31T08:16:46;99588.22;;;23.68;85.59
48424;BME280;34232;42.502;26.014;2023-07-31T08:19:11;99591.66;;;23.76;85.17
48424;BME280;34232;42.502;26.014;2023-07-31T08:21:36;99574.47;;;23.77;87.56
48424;BME280;34232;42.502;26.014;2023-07-31T08:24:02;99583.81;;;23.92;88.86
48424;BME280;34232;42.502;26.014;2023-07-31T08:26:27;99576.56;;;23.93;86.09
48424;BME280;34232;42.502;26.014;2023-07-31T08:31:55;99571.09;;;24.18;83.12
48424;BME280;34232;42.502;26.014;2023-07-31T08:34:20;99569.69;;;24.33;85.55
48424;BME280;34232;42.502;26.014;2023-07-31T08:36:46;99567.47;;;24.42;83.06
48424;BME280;34232;42.502;26.014;2023-07-31T08:39:11;99563.97;;;24.41;82.96
48424;BME280;34232;42.502;26.014;2023-07-31T08:47:44;99562.72;;;24.56;83.69
48424;BME280;34232;42.502;26.014;2023-07-31T08:50:10;99574.50;;;24.73;83.76
48424;BME280;34232;42.502;26.014;2023-07-31T08:58:42;99565.72;;;24.77;81.34
48424;BME280;34232;42.502;26.014;2023-07-31T09:01:09;99572.72;;;24.97;85.22
48424;BME280;34232;42.502;26.014;2023-07-31T09:15:45;99576.69;;;25.18;81.18
48424;BME280;34232;42.502;26.014;2023-07-31T09:18:31;99581.75;;;25.37;82.71
48424;BME280;34232;42.502;26.014;2023-07-31T09:38:46;99558.50;;;26.06;78.58
48424;BME280;34232;42.502;26.014;2023-07-31T09:41:11;99556.06;;;26.33;78.51
48424;BME280;34232;42.502;26.014;2023-07-31T09:46:39;99547.31;;;26.71;73.61
48424;BME280;34232;42.502;26.014;2023-07-31T09:49:13;99550.84;;;26.72;72.68
48424;BME280;34232;42.502;26.014;2023-07-31T09:52:20;99547.13;;;27.06;70.98
48424;BME280;34232;42.502;26.014;2023-07-31T09:57:57;99547.25;;;27.89;67.53
48424;BME280;34232;42.502;26.014;2023-07-31T10:00:24;99544.91;;;28.19;65.32
48424;BME280;34232;42.502;26.014;2023-07-31T10:02:53;99547.84;;;28.39;63.13
48424;BME280;34232;42.502;26.014;2023-07-31T10:05:19;99550.75;;;28.60;61.85
48424;BME280;34232;42.502;26.014;2023-07-31T10:13:50;99541.63;;;28.98;64.46
48424;BME280;34232;42.502;26.014;2023-07-31T10:16:16;99535.44;;;29.02;62.18
48424;BME280;34232;42.502;26.014;2023-07-31T10:18:41;99541.19;;;29.11;62.48
48424;BME280;34232;42.502;26.014;2023-07-31T10:21:07;99532.84;;;29.22;58.34
48424;BME280;34232;42.502;26.014;2023-07-31T10:23:32;99528.63;;;29.37;58.56
48424;BME280;34232;42.502;26.014;2023-07-31T10:26:18;99531.75;;;29.18;57.95
48424;BME280;34232;42.502;26.014;2023-07-31T10:28:45;99527.63;;;29.11;55.45
48424;BME280;34232;42.502;26.014;2023-07-31T10:31:12;99524.69;;;29.17;57.42
48424;BME280;34232;42.502;26.014;2023-07-31T10:33:37;99516.06;;;29.25;57.29
48424;BME280;34232;42.502;26.014;2023-07-31T10:36:14;99511.88;;;29.08;58.47
48424;BME280;34232;42.502;26.014;2023-07-31T10:38:42;99507.97;;;28.88;56.89
48424;BME280;34232;42.502;26.014;2023-07-31T10:41:49;99518.53;;;28.90;55.78
48424;BME280;34232;42.502;26.014;2023-07-31T10:44:16;99505.56;;;28.97;54.16
48424;BME280;34232;42.502;26.014;2023-07-31T10:46:42;99511.69;;;29.19;56.77
48424;BME280;34232;42.502;26.014;2023-07-31T10:49:30;99504.78;;;29.39;58.49
48424;BME280;34232;42.502;26.014;2023-07-31T10:52:50;99502.72;;;29.61;56.49
48424;BME280;34232;42.502;26.014;2023-07-31T10:55:57;99499.56;;;29.79;55.14
48424;BME280;34232;42.502;26.014;2023-07-31T10:59:08;99496.88;;;29.84;52.28
48424;BME280;34232;42.502;26.014;2023-07-31T11:01:58;99492.06;;;30.02;54.42
48424;BME280;34232;42.502;26.014;2023-07-31T11:04:27;99491.81;;;30.08;51.54
48424;BME280;34232;42.502;26.014;2023-07-31T11:07:01;99479.50;;;29.85;50.77
48424;BME280;34232;42.502;26.014;2023-07-31T11:09:30;99484.53;;;30.29;52.87
48424;BME280;34232;42.502;26.014;2023-07-31T11:15:35;99470.16;;;30.89;51.07
48424;BME280;34232;42.502;26.014;2023-07-31T11:18:59;99461.69;;;31.21;51.36
48424;BME280;34232;42.502;26.014;2023-07-31T11:21:49;99464.88;;;31.49;51.19
48424;BME280;34232;42.502;26.014;2023-07-31T11:24:21;99449.31;;;31.54;48.96
48424;BME280;34232;42.502;26.014;2023-07-31T11:27:09;99448.50;;;31.64;49.49
48424;BME280;34232;42.502;26.014;2023-07-31T11:30:30;99445.47;;;31.71;47.60
48424;BME280;34232;42.502;26.014;2023-07-31T11:33:23;99442.41;;;31.82;47.52
48424;BME280;34232;42.502;26.014;2023-07-31T11:35:52;99435.84;;;31.88;45.36
48424;BME280;34232;42.502;26.014;2023-07-31T11:40:52;99431.06;;;31.70;46.11
48424;BME280;34232;42.502;26.014;2023-07-31T11:43:18;99429.88;;;31.86;46.53
48424;BME280;34232;42.502;26.014;2023-07-31T11:45:53;99428.69;;;32.03;47.02
48424;BME280;34232;42.502;26.014;2023-07-31T11:48:44;99429.75;;;32.07;44.20
48424;BME280;34232;42.502;26.014;2023-07-31T11:52:03;99422.78;;;31.85;46.30
48424;BME280;34232;42.502;26.014;2023-07-31T11:55:22;99418.41;;;31.89;44.20
48424;BME280;34232;42.502;26.014;2023-07-31T11:58:20;99411.97;;;31.75;44.19
48424;BME280;34232;42.502;26.014;2023-07-31T12:00:47;99403.28;;;31.73;44.29
48424;BME280;34232;42.502;26.014;2023-07-31T12:09:20;99397.50;;;32.24;44.44
48424;BME280;34232;42.502;26.014;2023-07-31T12:15:21;99402.31;;;32.37;43.95
48424;BME280;34232;42.502;26.014;2023-07-31T12:20:34;99402.97;;;32.19;43.41
48424;BME280;34232;42.502;26.014;2023-07-31T12:23:26;99391.63;;;32.07;43.53
48424;BME280;34232;42.502;26.014;2023-07-31T12:26:48;99392.78;;;31.95;45.01
48424;BME280;34232;42.502;26.014;2023-07-31T12:30:25;99385.63;;;32.05;45.25
48424;BME280;34232;42.502;26.014;2023-07-31T12:36:36;99380.97;;;32.10;44.07
48424;BME280;34232;42.502;26.014;2023-07-31T12:39:02;99380.91;;;32.15;43.00
48424;BME280;34232;42.502;26.014;2023-07-31T12:41:29;99370.88;;;32.11;43.52
48424;BME280;34232;42.502;26.014;2023-07-31T12:46:57;99370.47;;;31.93;44.61
48424;BME280;34232;42.502;26.014;2023-07-31T12:49:23;99367.53;;;31.85;44.50
48424;BME280;34232;42.502;26.014;2023-07-31T12:57:54;99353.84;;;31.95;41.41
48424;BME280;34232;42.502;26.014;2023-07-31T13:00:19;99353.56;;;31.96;41.49
48424;BME280;34232;42.502;26.014;2023-07-31T13:06:23;99353.31;;;31.93;41.10
48424;BME280;34232;42.502;26.014;2023-07-31T13:09:02;99363.41;;;31.92;42.81
48424;BME280;34232;42.502;26.014;2023-07-31T13:11:29;99362.34;;;31.88;43.11
48424;BME280;34232;42.502;26.014;2023-07-31T13:23:41;99357.06;;;31.53;44.05
48424;BME280;34232;42.502;26.014;2023-07-31T13:30:16;99356.44;;;31.76;44.32
48424;BME280;34232;42.502;26.014;2023-07-31T13:33:35;99346.09;;;31.73;43.02
48424;BME280;34232;42.502;26.014;2023-07-31T13:36:36;99354.00;;;31.70;44.60
48424;BME280;34232;42.502;26.014;2023-07-31T13:39:03;99348.28;;;31.71;41.57
48424;BME280;34232;42.502;26.014;2023-07-31T13:41:29;99350.16;;;31.81;43.14
48424;BME280;34232;42.502;26.014;2023-07-31T13:43:54;99355.34;;;31.77;43.96
48424;BME280;34232;42.502;26.014;2023-07-31T13:46:19;99359.19;;;31.66;43.07
48424;BME280;34232;42.502;26.014;2023-07-31T13:49:14;99361.38;;;31.64;42.90
48424;BME280;34232;42.502;26.014;2023-07-31T13:52:12;99376.94;;;31.53;42.82
48424;BME280;34232;42.502;26.014;2023-07-31T13:54:37;99384.56;;;31.56;44.45
48424;BME280;34232;42.502;26.014;2023-07-31T13:57:33;99381.34;;;31.49;44.54
48424;BME280;34232;42.502;26.014;2023-07-31T14:01:32;99378.06;;;31.47;44.26
48424;BME280;34232;42.502;26.014;2023-07-31T14:07:32;99367.97;;;31.53;44.57
48424;BME280;34232;42.502;26.014;2023-07-31T14:10:53;99368.03;;;31.38;44.50
48424;BME280;34232;42.502;26.014;2023-07-31T14:13:44;99376.19;;;31.38;44.62
48424;BME280;34232;42.502;26.014;2023-07-31T14:16:09;99374.28;;;31.38;45.87
48424;BME280;34232;42.502;26.014;2023-07-31T14:18:34;99384.34;;;31.48;44.55
48424;BME280;34232;42.502;26.014;2023-07-31T14:21:00;99383.19;;;31.54;44.60
48424;BME280;34232;42.502;26.014;2023-07-31T14:26:44;99384.84;;;31.50;44.60
48424;BME280;34232;42.502;26.014;2023-07-31T14:29:09;99383.28;;;31.39;45.31
48424;BME280;34232;42.502;26.014;2023-07-31T14:31:35;99377.84;;;31.34;44.49
48424;BME280;34232;42.502;26.014;2023-07-31T14:37:40;99374.22;;;30.79;44.52
48424;BME280;34232;42.502;26.014;2023-07-31T14:40:47;99370.41;;;30.80;44.69
48424;BME280;34232;42.502;26.014;2023-07-31T14:43:51;99369.31;;;30.81;45.46
48424;BME280;34232;42.502;26.014;2023-07-31T14:46:31;99366.06;;;30.79;46.01
48424;BME280;34232;42.502;26.014;2023-07-31T14:49:24;99360.34;;;30.75;44.67
48424;BME280;34232;42.502;26.014;2023-07-31T14:52:13;99366.59;;;30.81;44.42
48424;BME280;34232;42.502;26.014;2023-07-31T14:54:38;99373.41;;;30.83;45.85
48424;BME280;34232;42.502;26.014;2023-07-31T14:57:09;99370.63;;;30.88;45.53
48424;BME280;34232;42.502;26.014;2023-07-31T14:59:34;99361.13;;;30.96;45.24
48424;BME280;34232;42.502;26.014;2023-07-31T15:05:32;99357.53;;;31.16;46.03
48424;BME280;34232;42.502;26.014;2023-07-31T15:08:20;99361.63;;;31.13;45.44
48424;BME280;34232;42.502;26.014;2023-07-31T15:10:46;99357.81;;;31.14;44.24
48424;BME280;34232;42.502;26.014;2023-07-31T15:29:03;99351.97;;;30.67;45.13
48424;BME280;34232;42.502;26.014;2023-07-31T15:31:30;99354.09;;;30.75;45.40
48424;BME280;34232;42.502;26.014;2023-07-31T15:34:01;99361.72;;;30.73;45.36
48424;BME280;34232;42.502;26.014;2023-07-31T15:36:26;99361.16;;;30.76;44.96
48424;BME280;34232;42.502;26.014;2023-07-31T15:39:18;99358.19;;;30.77;47.13
48424;BME280;34232;42.502;26.014;2023-07-31T15:42:11;99356.56;;;30.46;46.40
48424;BME280;34232;42.502;26.014;2023-07-31T15:44:39;99362.28;;;30.39;47.27
48424;BME280;34232;42.502;26.014;2023-07-31T15:47:05;99353.84;;;30.41;46.84
48424;BME280;34232;42.502;26.014;2023-07-31T15:49:30;99352.50;;;30.38;47.52
48424;BME280;34232;42.502;26.014;2023-07-31T15:52:27;99355.22;;;30.33;47.86
48424;BME280;34232;42.502;26.014;2023-07-31T15:58:32;99360.91;;;30.42;47.37
48424;BME280;34232;42.502;26.014;2023-07-31T16:00:58;99357.94;;;30.23;47.82
48424;BME280;34232;42.502;26.014;2023-07-31T16:03:49;99367.97;;;30.22;47.91
48424;BME280;34232;42.502;26.014;2023-07-31T16:10:26;99372.31;;;30.08;47.45
48424;BME280;34232;42.502;26.014;2023-07-31T16:13:18;99379.66;;;30.03;47.10
48424;BME280;34232;42.502;26.014;2023-07-31T16:15:43;99397.53;;;29.93;47.39
48424;BME280;34232;42.502;26.014;2023-07-31T16:18:35;99399.16;;;29.94;47.88
48424;BME280;34232;42.502;26.014;2023-07-31T16:22:04;99396.19;;;29.86;48.08
48424;BME280;34232;42.502;26.014;2023-07-31T16:28:16;99403.47;;;29.80;48.92
48424;BME280;34232;42.502;26.014;2023-07-31T16:30:42;99406.72;;;29.77;50.44
48424;BME280;34232;42.502;26.014;2023-07-31T16:33:33;99408.38;;;29.83;49.93
48424;BME280;34232;42.502;26.014;2023-07-31T16:39:55;99415.44;;;29.84;51.19
48424;BME280;34232;42.502;26.014;2023-07-31T16:42:47;99417.06;;;29.80;52.03
48424;BME280;34232;42.502;26.014;2023-07-31T16:45:15;99418.66;;;29.76;52.13
48424;BME280;34232;42.502;26.014;2023-07-31T16:47:45;99425.16;;;29.75;51.09
48424;BME280;34232;42.502;26.014;2023-07-31T16:50:11;99424.34;;;29.75;51.81
48424;BME280;34232;42.502;26.014;2023-07-31T16:52:36;99421.91;;;29.68;51.77
48424;BME280;34232;42.502;26.014;2023-07-31T16:55:02;99424.59;;;29.63;52.09
48424;BME280;34232;42.502;26.014;2023-07-31T16:57:27;99422.69;;;29.58;52.52
48424;BME280;34232;42.502;26.014;2023-07-31T16:59:55;99426.72;;;29.51;52.95
48424;BME280;34232;42.502;26.014;2023-07-31T17:02:46;99428.31;;;29.42;53.70
48424;BME280;34232;42.502;26.014;2023-07-31T17:05:59;99432.25;;;29.24;55.00
48424;BME280;34232;42.502;26.014;2023-07-31T17:09:16;99430.91;;;29.27;54.59
48424;BME280;34232;42.502;26.014;2023-07-31T17:15:44;99424.16;;;29.29;54.61
48424;BME280;34232;42.502;26.014;2023-07-31T17:19:01;99415.72;;;29.20;54.45
48424;BME280;34232;42.502;26.014;2023-07-31T17:21:51;99421.16;;;29.20;54.19
48424;BME280;34232;42.502;26.014;2023-07-31T17:24:20;99418.88;;;29.07;52.82
48424;BME280;34232;42.502;26.014;2023-07-31T17:27:08;99407.91;;;28.82;52.91
48424;BME280;34232;42.502;26.014;2023-07-31T17:30:25;99410.53;;;28.77;53.71
48424;BME280;34232;42.502;26.014;2023-07-31T17:33:43;99420.28;;;28.73;54.84
48424;BME280;34232;42.502;26.014;2023-07-31T17:37:03;99432.19;;;28.72;55.02
48424;BME280;34232;42.502;26.014;2023-07-31T17:40:21;99436.50;;;28.68;55.01
48424;BME280;34232;42.502;26.014;2023-07-31T17:43:43;99444.31;;;28.64;55.06
48424;BME280;34232;42.502;26.014;2023-07-31T17:46:36;99437.50;;;28.57;54.86
48424;BME280;34232;42.502;26.014;2023-07-31T17:49:01;99447.16;;;28.47;54.00
48424;BME280;34232;42.502;26.014;2023-07-31T17:51:27;99444.38;;;28.37;52.87
48424;BME280;34232;42.502;26.014;2023-07-31T17:53:53;99452.97;;;28.29;52.09
48424;BME280;34232;42.502;26.014;2023-07-31T17:56:21;99450.16;;;28.19;51.71
48424;BME280;34232;42.502;26.014;2023-07-31T17:58:46;99451.72;;;28.15;52.17
48424;BME280;34232;42.502;26.014;2023-07-31T18:01:12;99454.88;;;28.07;52.93
48424;BME280;34232;42.502;26.014;2023-07-31T18:03:59;99455.34;;;27.99;53.47
48424;BME280;34232;42.502;26.014;2023-07-31T18:06:50;99456.31;;;27.88;52.73
48424;BME280;34232;42.502;26.014;2023-07-31T18:09:15;99452.66;;;27.77;52.79
48424;BME280;34232;42.502;26.014;2023-07-31T18:12:08;99448.53;;;27.69;53.00
48424;BME280;34232;42.502;26.014;2023-07-31T18:15:27;99464.44;;;27.66;53.32
48424;BME280;34232;42.502;26.014;2023-07-31T18:27:57;99487.56;;;27.78;54.27
48424;BME280;34232;42.502;26.014;2023-07-31T18:30:25;99489.78;;;27.81;53.07
48424;BME280;34232;42.502;26.014;2023-07-31T18:32:50;99500.09;;;27.84;52.69
48424;BME280;34232;42.502;26.014;2023-07-31T18:35:16;99499.59;;;27.88;52.88
48424;BME280;34232;42.502;26.014;2023-07-31T18:37:44;99500.75;;;27.92;52.90
48424;BME280;34232;42.502;26.014;2023-07-31T18:40:10;99504.50;;;27.91;53.74
48424;BME280;34232;42.502;26.014;2023-07-31T18:46:12;99513.31;;;27.59;54.08
48424;BME280;34232;42.502;26.014;2023-07-31T18:49:01;99522.03;;;27.28;56.00
48424;BME280;34232;42.502;26.014;2023-07-31T18:51:26;99519.75;;;27.20;55.33
48424;BME280;34232;42.502;26.014;2023-07-31T18:54:12;99521.88;;;27.17;55.00
48424;BME280;34232;42.502;26.014;2023-07-31T19:00:33;99526.88;;;27.26;56.20
48424;BME280;34232;42.502;26.014;2023-07-31T19:03:42;99529.59;;;27.26;56.87
48424;BME280;34232;42.502;26.014;2023-07-31T19:06:35;99520.41;;;27.27;56.94
48424;BME280;34232;42.502;26.014;2023-07-31T19:09:04;99519.25;;;27.23;57.55
48424;BME280;34232;42.502;26.014;2023-07-31T19:11:29;99521.75;;;27.07;58.38
48424;BME280;34232;42.502;26.014;2023-07-31T19:13:55;99526.00;;;27.03;58.57
48424;BME280;34232;42.502;26.014;2023-07-31T19:16:20;99526.97;;;26.97;58.10
48424;BME280;34232;42.502;26.014;2023-07-31T19:18:58;99522.19;;;26.88;58.38
48424;BME280;34232;42.502;26.014;2023-07-31T19:22:05;99518.00;;;26.80;58.31
48424;BME280;34232;42.502;26.014;2023-07-31T19:28:09;99525.28;;;26.63;59.48
48424;BME280;34232;42.502;26.014;2023-07-31T19:30:36;99528.72;;;26.58;59.42
48424;BME280;34232;42.502;26.014;2023-07-31T19:33:25;99528.88;;;26.52;59.78
48424;BME280;34232;42.502;26.014;2023-07-31T19:36:47;99535.25;;;26.45;60.54
48424;BME280;34232;42.502;26.014;2023-07-31T19:40:02;99535.41;;;26.39;60.38
48424;BME280;34232;42.502;26.014;2023-07-31T19:43:34;99538.81;;;26.34;60.70
48424;BME280;34232;42.502;26.014;2023-07-31T19:46:36;99539.28;;;26.31;61.19
48424;BME280;34232;42.502;26.014;2023-07-31T19:49:01;99535.91;;;26.24;61.59
48424;BME280;34232;42.502;26.014;2023-07-31T19:51:27;99539.06;;;26.21;62.12
48424;BME280;34232;42.502;26.014;2023-07-31T19:53:52;99541.66;;;26.16;62.31
48424;BME280;34232;42.502;26.014;2023-07-31T19:56:22;99542.66;;;26.10;62.67
48424;BME280;34232;42.502;26.014;2023-07-31T19:58:47;99543.25;;;26.00;62.99